Latest Weather Observations for Adelaide Airport

IDS60901

Issued at 6:41 am CST Friday 18 August 2017 (issued every 10 minutes, with the page automatically refreshed every 10 minutes)

About weather observations | Map of Adelaide area stations | Latest observations for Adelaide area | Other Formats
Station Details ID: 023034 Name: ADELAIDE AIRPORT Lat: -34.95 Lon: 138.52 Height: 2.0 m
Data from the previous 72 hours. | See also: Recent months at Adelaide Airport
Date/Time
CST
Temp
°C
App
Temp
°C
Dew
Point
°C
Rel
Hum
%
Delta-T
°C
Wind Press
QNH
hPa
Press
MSL
hPa
Rain since
9am
mm
Dir  Spd
km/h
Gust
km/h
Spd
kts
Gust
kts
18/06:30am 10.9 3.8 6.2 73 2.2 WSW 33 43 18 23 1019.2 1019.2 6.2
18/06:00am 9.8 1.7 7.0 83 1.3 WSW 39 56 21 30 1019.1 1019.1 6.2
18/05:30am 10.4 4.6 6.1 75 2.0 W 26 32 14 17 1018.4 1018.4 5.6
18/05:00am 10.2 3.7 6.3 77 1.8 W 30 41 16 22 1018.3 1018.3 5.4
18/04:30am 10.6 3.9 5.6 71 2.3 WSW 30 43 16 23 1017.5 1017.5 5.4
18/04:00am 9.2 2.2 6.8 85 1.1 WSW 33 46 18 25 1017.2 1017.2 5.4
18/03:41am 9.1 2.2 6.3 83 1.3 W 32 54 17 29 1017.3 1017.3 4.4
18/03:30am 10.8 3.5 5.6 70 2.4 W 33 44 18 24 1016.8 1016.8 3.6
18/03:00am 10.0 -0.6 4.9 70 2.3 WSW 50 69 27 37 1016.9 1016.9 3.6
18/02:30am 10.2 3.3 6.3 77 1.8 W 32 43 17 23 1016.5 1016.5 3.4
18/02:00am 9.9 3.2 5.7 75 1.9 W 30 37 16 20 1016.3 1016.3 3.2
18/01:30am 10.0 3.7 5.9 75 1.9 SW 28 35 15 19 1016.3 1016.3 2.8
18/01:13am 9.6 0.8 7.3 85 1.1 WSW 43 54 23 29 1016.1 1016.1 2.8
18/01:00am 8.6 -0.7 5.7 82 1.3 W 44 82 24 44 1016.1 1016.1 2.4
18/12:59am 8.9 0.1 5.6 80 1.5 W 41 80 22 43 1016.0 1016.0 2.2
18/12:30am 10.9 2.5 5.5 69 2.5 W 39 56 21 30 1015.2 1015.2 1.4
18/12:00am 10.3 1.2 6.0 75 2.0 W 43 57 23 31 1015.0 1015.0 1.4
 
Date/Time
CST
Temp
°C
App
Temp
°C
Dew
Point
°C
Rel
Hum
%
Delta-T
°C
Wind Press
QNH
hPa
Press
MSL
hPa
Rain since
9am
mm
Dir  Spd
km/h
Gust
km/h
Spd
kts
Gust
kts
17/11:49pm 10.1 1.7 5.5 73 2.1 W 39 70 21 38 1015.1 1015.1 1.4
17/11:30pm 11.3 4.7 5.9 69 2.5 W 30 37 16 20 1014.7 1014.7 1.2
17/11:00pm 11.3 2.1 3.3 58 3.5 W 41 56 22 30 1014.4 1014.4 1.2
17/10:39pm 10.6 1.4 5.3 70 2.4 WSW 43 57 23 31 1014.6 1014.6 1.2
17/10:30pm 11.7 2.6 5.9 67 2.7 W 43 57 23 31 1014.2 1014.2 1.2
17/10:00pm 11.7 2.8 5.2 64 3.0 W 41 57 22 31 1013.8 1013.8 1.2
17/09:30pm 11.7 3.6 5.4 65 2.9 W 37 56 20 30 1013.7 1013.7 1.2
17/09:00pm 11.7 2.8 5.2 64 3.0 W 41 61 22 33 1013.3 1013.3 1.2
17/08:34pm 11.7 3.1 4.7 62 3.2 W 39 61 21 33 1013.1 1013.1 1.2
17/08:30pm 11.7 2.6 4.1 59 3.4 W 41 54 22 29 1013.1 1013.1 1.2
17/08:07pm 12.2 3.9 4.0 57 3.7 W 37 59 20 32 1012.7 1012.7 1.2
17/08:00pm 12.2 3.6 4.5 59 3.5 W 39 54 21 29 1012.7 1012.7 1.2
17/07:30pm 12.5 3.1 4.6 58 3.6 W 43 59 23 32 1012.3 1012.3 1.2
17/07:00pm 12.4 3.0 5.5 63 3.2 WNW 44 57 24 31 1011.7 1011.7 1.2
17/06:30pm 12.8 2.9 4.8 58 3.7 W 46 65 25 35 1011.3 1011.3 1.2
17/06:16pm 12.9 3.6 4.9 58 3.7 W 43 61 23 33 1011.1 1011.1 1.2
17/06:00pm 12.9 4.2 6.2 64 3.2 W 41 56 22 30 1010.9 1010.9 1.2
17/05:30pm 12.7 4.5 6.4 65 3.0 WNW 39 57 21 31 1010.4 1010.4 1.2
17/05:00pm 13.2 4.0 5.5 59 3.6 WNW 43 56 23 30 1009.9 1009.9 1.2
17/04:42pm 13.3 4.1 5.4 59 3.7 W 43 61 23 33 1009.7 1009.7 1.2
17/04:30pm 13.3 4.5 5.4 59 3.7 W 41 52 22 28 1009.6 1009.6 1.2
17/04:00pm 13.1 4.9 6.6 64 3.1 W 39 52 21 28 1009.6 1009.6 1.2
17/03:30pm 12.0 2.8 7.9 76 2.0 W 46 61 25 33 1009.3 1009.3 1.2
17/03:14pm 12.2 3.0 6.5 68 2.7 WNW 44 78 24 42 1009.3 1009.3 1.0
17/03:09pm 14.2 6.5 7.3 63 3.4 WNW 37 59 20 32 1008.8 1008.8 1.0
17/03:00pm 13.7 6.1 7.4 65 3.1 W 37 48 20 26 1008.8 1008.8 1.0
17/02:30pm 12.4 4.6 8.1 75 2.1 W 39 57 21 31 1008.8 1008.8 1.0
17/02:17pm 11.5 1.5 9.3 86 1.1 W 52 70 28 38 1008.9 1008.9 1.0
17/02:09pm 12.1 3.5 8.7 80 1.7 W 44 61 24 33 1009.0 1009.0 0.0
17/02:00pm 15.5 6.1 7.0 57 4.2 WNW 46 67 25 36 1008.3 1008.3 0.0
17/01:44pm 15.3 6.5 7.2 58 4.0 WNW 43 61 23 33 1008.1 1008.1 0.0
17/01:30pm 15.0 6.1 6.8 58 4.0 WNW 43 56 23 30 1008.0 1008.0 0.0
17/01:08pm 15.2 6.6 6.3 55 4.3 WNW 41 59 22 32 1008.2 1008.2 0.0
17/01:00pm 15.2 7.3 8.0 62 3.6 WNW 39 52 21 28 1008.3 1008.3 0.0
17/12:30pm 14.4 5.7 7.5 63 3.4 WNW 43 56 23 30 1008.6 1008.6 0.0
17/12:00pm 15.3 7.5 8.4 63 3.5 WNW 39 50 21 27 1008.7 1008.7 0.0
17/11:30am 15.1 7.6 8.1 63 3.5 WNW 37 52 20 28 1008.8 1008.8 0.0
17/11:00am 14.8 7.6 9.1 68 2.9 NW 37 50 20 27 1008.9 1008.9 0.0
17/10:30am 14.3 7.0 8.6 68 2.9 NNW 37 46 20 25 1008.7 1008.7 0.0
17/10:00am 13.9 6.8 9.6 75 2.2 NNW 37 50 20 27 1008.7 1008.7 0.0
17/09:30am 13.3 7.5 9.4 77 2.0 NW 30 37 16 20 1008.7 1008.7 0.0
17/09:00am 13.0 6.7 8.8 75 2.1 NW 32 39 17 21 1008.7 1008.7 3.2
17/08:30am 13.0 7.4 8.8 75 2.1 NW 28 33 15 18 1008.6 1008.6 3.2
17/08:00am 12.5 6.5 8.7 77 1.9 NW 30 39 16 21 1008.2 1008.2 3.2
17/07:30am 12.6 6.1 8.2 74 2.2 WNW 32 44 17 24 1007.9 1007.9 3.2
17/07:00am 12.4 7.1 8.6 77 1.9 NW 26 32 14 17 1007.7 1007.7 3.2
17/06:30am 12.6 6.0 8.6 76 2.0 NW 33 44 18 24 1007.2 1007.2 3.2
17/06:00am 12.6 7.1 9.0 79 1.8 NW 28 37 15 20 1007.1 1007.1 3.2
17/05:33am 12.7 6.2 8.9 78 1.9 NW 33 52 18 28 1006.8 1006.8 3.2
17/05:30am 12.6 6.5 9.7 82 1.5 NW 32 43 17 23 1006.8 1006.8 3.2
17/05:00am 12.5 6.0 9.1 80 1.7 WNW 33 46 18 25 1006.5 1006.5 3.2
17/04:30am 12.8 5.6 9.0 78 1.9 NW 37 50 20 27 1006.5 1006.5 3.2
17/04:00am 12.6 5.8 9.2 80 1.7 NW 35 46 19 25 1006.3 1006.3 3.2
17/03:30am 12.1 5.7 9.3 83 1.4 NW 33 50 18 27 1006.4 1006.4 3.0
17/03:00am 12.3 5.9 9.5 83 1.4 NW 33 44 18 24 1006.5 1006.5 3.0
17/02:30am 12.1 6.1 10.0 87 1.1 NW 32 41 17 22 1006.6 1006.6 3.0
17/02:00am 12.5 6.2 9.6 82 1.5 NW 33 48 18 26 1006.7 1006.7 3.0
17/01:47am 13.1 6.4 9.6 79 1.8 NW 35 54 19 29 1006.8 1006.8 3.0
17/01:30am 13.1 6.8 9.6 79 1.8 NW 33 41 18 22 1006.8 1006.8 3.0
17/01:00am 12.9 7.0 9.1 78 1.9 NW 30 39 16 21 1007.0 1007.0 3.0
17/12:30am 12.8 6.4 9.5 80 1.7 NW 33 48 18 26 1007.3 1007.3 3.0
17/12:20am 12.8 6.4 9.5 80 1.7 NNW 33 54 18 29 1007.4 1007.4 3.0
17/12:00am 13.0 5.9 9.5 79 1.8 NW 37 48 20 26 1007.6 1007.6 3.0
 
Date/Time
CST
Temp
°C
App
Temp
°C
Dew
Point
°C
Rel
Hum
%
Delta-T
°C
Wind Press
QNH
hPa
Press
MSL
hPa
Rain since
9am
mm
Dir  Spd
km/h
Gust
km/h
Spd
kts
Gust
kts
16/11:30pm 13.1 6.8 9.6 79 1.8 NW 33 48 18 26 1007.9 1007.9 3.0
16/11:00pm 13.1 7.3 9.6 79 1.8 NW 30 37 16 20 1008.1 1008.1 3.0
16/10:33pm 13.2 7.1 9.7 79 1.8 NW 32 50 17 27 1008.3 1008.3 3.0
16/10:30pm 13.2 7.1 9.7 79 1.8 NW 32 41 17 22 1008.4 1008.4 3.0
16/10:00pm 13.1 7.0 9.8 80 1.7 NW 32 41 17 22 1008.4 1008.4 3.0
16/09:51pm 13.2 8.0 10.1 81 1.6 NW 28 37 15 20 1008.4 1008.4 3.0
16/09:30pm 12.9 7.9 11.0 88 1.0 NNW 28 46 15 25 1008.6 1008.6 2.8
16/09:00pm 13.3 9.1 11.0 86 1.2 WNW 24 33 13 18 1008.5 1008.5 1.2
16/08:30pm 13.6 8.0 10.1 79 1.8 WNW 30 37 16 20 1008.1 1008.1 1.0
16/08:00pm 13.1 7.1 10.2 82 1.5 WNW 32 41 17 22 1007.9 1007.9 1.0
16/07:30pm 13.5 7.8 9.8 78 1.9 WNW 30 39 16 21 1007.9 1007.9 1.0
16/07:00pm 13.3 8.8 10.0 80 1.7 WNW 24 32 13 17 1007.5 1007.5 1.0
16/06:30pm 12.6 4.6 11.1 91 0.8 NW 44 61 24 33 1007.5 1007.5 1.0
16/06:21pm 13.3 7.3 10.8 85 1.3 NW 33 59 18 32 1007.4 1007.4 0.2
16/06:19pm 13.7 8.2 10.7 82 1.6 NW 30 44 16 24 1007.2 1007.2 0.2
16/06:00pm 14.5 9.0 9.2 70 2.7 NW 28 37 15 20 1006.8 1006.8 0.0
16/05:30pm 14.6 8.2 8.7 67 3.0 NW 32 37 17 20 1006.9 1006.9 0.0
16/05:00pm 15.4 9.9 9.0 65 3.3 NW 28 35 15 19 1006.8 1006.8 0.0
16/04:30pm 15.4 9.6 9.4 67 3.1 NNW 30 41 16 22 1006.8 1006.8 0.0
16/04:00pm 15.8 9.8 8.5 62 3.7 NW 30 37 16 20 1006.7 1006.7 0.0
16/03:30pm 15.2 9.2 8.5 64 3.4 NW 30 39 16 21 1006.7 1006.7 0.0
16/03:00pm 16.1 10.2 8.9 62 3.7 NNW 30 39 16 21 1007.0 1007.0 0.0
16/02:30pm 15.4 10.1 8.3 62 3.6 NW 26 39 14 21 1007.0 1007.0 0.0
16/02:00pm 15.4 9.4 8.7 64 3.4 NW 30 35 16 19 1007.0 1007.0 0.0
16/01:30pm 15.9 10.1 9.6 66 3.3 NW 30 37 16 20 1007.2 1007.2 0.0
16/01:00pm 15.5 9.2 9.1 65 3.3 NW 32 39 17 21 1007.4 1007.4 0.0
16/12:30pm 15.7 9.8 9.1 65 3.4 NW 30 37 16 20 1007.5 1007.5 0.0
16/12:00pm 15.6 9.3 8.8 64 3.5 WNW 32 41 17 22 1007.8 1007.8 0.0
16/11:30am 15.3 9.0 9.1 66 3.2 NW 32 41 17 22 1007.9 1007.9 0.0
16/11:00am 14.6 8.9 9.8 73 2.5 NW 30 35 16 19 1007.8 1007.8 0.0
16/10:30am 14.7 9.4 9.9 73 2.5 NW 28 35 15 19 1007.7 1007.7 0.0
16/10:00am 14.2 8.9 9.8 75 2.3 NW 28 35 15 19 1007.4 1007.4 0.0
16/09:30am 13.1 7.7 9.4 78 1.9 NW 28 39 15 21 1007.1 1007.1 0.0
16/09:00am 13.6 7.9 9.7 77 2.0 NW 30 39 16 21 1007.0 1007.0 10.6
16/08:30am 12.9 8.3 9.6 80 1.7 NW 24 39 13 21 1007.0 1007.0 10.6
16/08:08am 12.8 8.7 10.1 84 1.4 NW 22 32 12 17 1007.0 1007.0 10.4
16/08:06am 13.1 9.3 9.8 80 1.7 NNW 20 32 11 17 1006.9 1006.9 10.4
16/08:00am 13.1 8.9 9.8 80 1.7 NNW 22 30 12 16 1006.7 1006.7 10.4
16/07:30am 12.8 8.2 9.5 80 1.7 NW 24 32 13 17 1006.3 1006.3 10.4
16/07:00am 12.7 8.0 9.1 79 1.8 NW 24 30 13 16 1006.0 1006.0 10.4
16/06:30am 12.6 7.9 9.2 80 1.7 NW 24 30 13 16 1005.7 1005.7 10.4
16/06:00am 12.5 8.5 8.9 79 1.8 NW 20 28 11 15 1005.6 1005.6 10.4
16/05:30am 12.3 8.8 8.9 80 1.7 WNW 17 24 9 13 1005.2 1005.2 10.4
16/05:00am 12.4 6.3 8.2 75 2.1 WNW 30 39 16 21 1004.8 1004.8 10.4
16/04:30am 12.8 6.4 8.6 75 2.1 WNW 32 39 17 21 1004.0 1004.0 10.4
16/04:00am 12.8 6.1 8.2 73 2.3 WNW 33 41 18 22 1003.6 1003.6 10.4
16/03:30am 12.9 5.8 8.1 72 2.4 WNW 35 48 19 26 1003.3 1003.3 10.4
16/03:00am 12.8 6.4 9.3 79 1.8 WNW 33 48 18 26 1003.1 1003.1 10.4
16/02:30am 13.2 6.3 8.8 74 2.2 WNW 35 48 19 26 1003.0 1003.0 10.4
16/02:00am 13.4 5.6 8.4 72 2.5 WNW 39 54 21 29 1003.0 1003.0 10.4
16/01:46am 13.4 5.6 8.2 71 2.6 WNW 39 59 21 32 1003.0 1003.0 10.4
16/01:30am 13.5 5.3 8.1 70 2.7 WNW 41 57 22 31 1002.9 1002.9 10.4
16/01:00am 13.6 5.3 7.7 67 2.9 WNW 41 56 22 30 1003.0 1003.0 10.4
16/12:30am 13.7 4.7 7.4 65 3.1 WNW 44 65 24 35 1003.0 1003.0 10.4
16/12:20am 13.9 5.8 7.2 64 3.3 WNW 39 63 21 34 1002.9 1002.9 10.4
16/12:00am 13.6 7.0 8.6 72 2.5 NW 33 41 18 22 1002.8 1002.8 10.4
 
Date/Time
CST
Temp
°C
App
Temp
°C
Dew
Point
°C
Rel
Hum
%
Delta-T
°C
Wind Press
QNH
hPa
Press
MSL
hPa
Rain since
9am
mm
Dir  Spd
km/h
Gust
km/h
Spd
kts
Gust
kts
15/11:30pm 13.5 7.6 10.6 82 1.5 NW 32 44 17 24 1002.7 1002.7 10.4
15/11:00pm 13.6 8.2 11.0 84 1.4 NW 30 37 16 20 1002.8 1002.8 10.4
15/10:30pm 14.1 8.1 10.9 81 1.7 WNW 33 48 18 26 1002.8 1002.8 10.2
15/10:00pm 14.1 8.3 10.9 81 1.7 WNW 32 43 17 23 1002.7 1002.7 10.2
15/09:30pm 14.3 8.7 11.5 83 1.5 WNW 32 39 17 21 1002.8 1002.8 10.2
15/09:00pm 14.6 8.5 11.6 82 1.6 WNW 35 44 19 24 1002.8 1002.8 10.2
15/08:33pm 14.7 8.2 11.7 82 1.6 NW 37 56 20 30 1002.4 1002.4 10.2
15/08:30pm 14.7 9.0 11.7 82 1.6 NW 33 48 18 26 1002.3 1002.3 10.2
15/08:00pm 14.7 9.3 12.1 84 1.4 NW 32 43 17 23 1002.4 1002.4 10.2
15/07:30pm 14.7 9.7 12.1 84 1.4 NNW 30 39 16 21 1002.3 1002.3 10.2
15/07:00pm 14.9 9.5 12.9 88 1.1 NNW 33 54 18 29 1002.3 1002.3 10.2
15/06:53pm 14.7 10.4 13.3 91 0.8 NNW 28 54 15 29 1002.4 1002.4 10.2
15/06:30pm 14.5 11.3 13.2 92 0.7 NNW 22 30 12 16 1002.5 1002.5 10.0
15/06:00pm 14.3 10.6 12.7 90 0.9 NNW 24 32 13 17 1002.4 1002.4 10.0
15/05:30pm 13.9 10.6 10.9 82 1.6 NNW 19 26 10 14 1002.5 1002.5 10.0
15/05:00pm 14.1 9.2 11.3 83 1.5 NNW 28 33 15 18 1002.4 1002.4 10.0
15/04:30pm 14.4 9.2 12.8 90 0.9 NNW 32 39 17 21 1002.3 1002.3 10.0
15/04:00pm 14.5 10.8 13.8 96 0.4 NW 26 33 14 18 1002.6 1002.6 10.0
15/03:30pm 15.1 10.1 14.0 93 0.6 NNW 33 43 18 23 1002.6 1002.6 8.6
15/03:00pm 15.5 10.8 14.3 92 0.7 N 32 46 17 25 1002.1 1002.1 8.0
15/02:30pm 15.5 10.8 14.3 92 0.7 N 32 39 17 21 1002.7 1002.7 7.2
15/02:00pm 15.7 11.0 14.3 91 0.8 N 32 41 17 22 1003.2 1003.2 6.4
15/01:47pm 15.7 11.4 14.5 93 0.7 N 30 48 16 26 1002.8 1002.8 6.4
15/01:30pm 15.7 11.4 14.5 93 0.7 N 30 43 16 23 1002.9 1002.9 6.2
15/01:00pm 15.7 11.1 14.5 93 0.7 N 32 39 17 21 1004.1 1004.1 5.8
15/12:30pm 15.8 12.7 14.4 91 0.8 N 24 33 13 18 1004.6 1004.6 5.0
15/12:00pm 15.8 11.5 14.4 91 0.8 N 30 39 16 21 1004.9 1004.9 4.4
15/11:30am 16.0 12.5 14.4 90 0.9 N 26 33 14 18 1005.4 1005.4 3.6
15/11:00am 16.1 12.2 14.5 90 0.9 N 28 35 15 19 1005.7 1005.7 3.2
15/10:51am 16.1 12.2 14.5 90 0.9 N 28 39 15 21 1006.0 1006.0 3.0
15/10:30am 16.0 12.9 14.4 90 0.9 N 24 33 13 18 1006.5 1006.5 2.6
15/10:00am 15.8 13.5 14.2 90 0.9 N 19 26 10 14 1007.0 1007.0 1.6
15/09:30am 15.6 11.8 14.6 94 0.6 N 28 37 15 20 1006.9 1006.9 0.8
15/09:00am 15.8 13.4 14.4 91 0.8 N 20 30 11 16 1007.3 1007.3 6.4
15/08:30am 15.7 13.0 14.5 93 0.7 N 22 32 12 17 1007.8 1007.8 4.8
15/08:21am 15.8 13.0 14.4 91 0.8 N 22 30 12 16 1007.5 1007.5 4.6
15/08:00am 15.5 12.0 14.4 93 0.6 NNE 26 33 14 18 1006.4 1006.4 4.6
15/07:30am 15.7 11.8 14.3 91 0.8 N 28 35 15 19 1007.5 1007.5 4.6
15/07:00am 15.6 11.7 14.4 93 0.7 N 28 39 15 21 1008.4 1008.4 4.2
15/06:48am 15.7 11.8 14.5 93 0.7 N 28 46 15 25 1008.2 1008.2 4.0

Latest Capital City Observations: Canberra | Sydney | Melbourne | Brisbane | Adelaide | Perth | Hobart | Darwin

Other Formats:

Comma delimited format used in spreadsheet applications
http://www.bom.gov.au/fwo/IDS60901/IDS60901.94672.axf

JavaScript Object Notation format (JSON) in row-major order
http://www.bom.gov.au/fwo/IDS60901/IDS60901.94672.json